Airfield :
LOGIN :

Register | Disclaimer

   EN    FR    IT 

 










Legend :    VFR   Marginal VFR   IFR   Intensive IFR   Very Intensive IFR
Visi :
Ceiling :
>= 8 km
>= 3000ft
5 to 8 km
1000 to 3000 ft
1500m to 5 km
500 to 1000 ft
800 to 1500m
200 to 500 ft
< 800m
< 200 ft
Symbols :   Thunderstorms  Fog  Heavy snow  Heavy precipitations  Wind > 20 kt
SIGMETs :     Misc.  Thunderstorms  Icing  Turbulence  Mountain Waves  Volcanic Ashes






- Airport Elevation : 1363 ft


ETIC - Grafenwohr Army Air Field

CURRENT METAR :
  • 171756Z AUTO 26006KT 9999 FEW047 BKN065 12/06 A2975 RMK AO2 SLP079 60000 T01230059 10148 20105 52011 $

EXPIRED METARs :
  • 171656Z AUTO 27007KT 9999 SCT038 BKN065 13/07 A2974 RMK AO2 RAB09E24DZB24E26DZB26E26 SLP074 P0000 T01300068 $
  • 171626Z AUTO 28005KT 9999 FEW005 FEW024 SCT040 BKN055 11/08 A2974 RMK AO2 RAB09E24DZB24E26DZB26 SLP075 $
  • 171611Z AUTO 27015G21KT 9999 -RA FEW005 FEW014 SCT025 SCT039 BKN047 BKN075 13/06 A2974 RMK AO2 RAB09 SLP074 $
  • 171556Z AUTO 27010G15KT 9999 FEW050 BKN070 15/05 A2973 RMK AO2 SLP068 T01450050 $

TAF TAF ETIC
Valid from the 17 at 18:00 until the 19 at 00:00 UTC


171800Z 1718/1824 26005KT 9999 FEW050 BKN065 620653 QNH2975INS
BECMG 1719/1720 25010KT 8000 -SHRA SCT030 BKN065 610653 QNH2981INS
TEMPO 1800/1808 SCT015 BKN025
BECMG 1808/1809 23009KT 9999 -SHRA BKN009 OVC020 610554 QNH2991INS
TEMPO 1810/1813 27012G18KT 8000 -TSRA OVC020CB
BECMG 1817/1818 27009KT 9999 NSW SCT030 BKN050 620554 QNH2994INS
BECMG 1821/1822 27007KT 8000 -SHRA BKN020 OVC030 610504 QNH2997INS TX13/1812Z TN09/1723Z



MET'MAP, your aeronautical weather chart ! - Copyright ORBIFLY December 2007 - Disclaimer

ORBIFLY MET'MAP TEAM :

Programming & Development : Alexandra Zaïnal
Concept & original design : Baudouin d'Aumeries
Assistance for programming : Marc-Olivier Méhu
Technical & hardware support : Manuel Goepfert

Contact : metmap@orbifly.com




SOURCES & CREDITS :

   NOAA